AirNav   Phillips 66 Aviation Fuel
 
 1123 users online  

W91 Smith Mountain Lake Airport
Moneta, Virginia, USA

GOING TO MONETA?


FAA INFORMATION EFFECTIVE 19 JULY 2018

Location

FAA Identifier: W91
Lat/Long: 37-06-27.8000N / 079-35-32.9000W
37-06.463333N / 079-35.548333W
37.1077222 / -79.5924722
(estimated)
Elevation: 892.2 ft. / 271.9 m (surveyed)
Variation: 09W (2010)
From city: 4 miles SE of MONETA, VA
Time zone: UTC -4 (UTC -5 during Standard Time)
Zip code: 24121

Airport Operations

Airport use: Open to the public
Activation date: 03/1962
Control tower: no
ARTCC: WASHINGTON CENTER
FSS: LEESBURG FLIGHT SERVICE STATION
NOTAMs facility: DCA (NOTAM-D service available)
Attendance: DAYLIGHT HOURS
Wind indicator: yes
Segmented circle: no
Beacon: white-green (lighted land airport)
Operates sunset to sunrise.

Airport Communications

CTAF/UNICOM: 122.975
ROANOKE APPROACH: 135.0
ROANOKE DEPARTURE: 135.0
IC: 135.0

Nearby radio navigation aids

VOR radial/distance  VOR name  Freq  Var
LYHr248/19.2LYNCHBURG VORTAC109.2005W
ODRr133/(22.6)WOODRUM VOR114.9008W
ROAr126/26.9ROANOKE VOR/DME109.4004W
DANr345/(34.6)DANVILLE VOR113.1006W
SBVr318/38.0SOUTH BOSTON VORTAC110.4005W

 
NDB name  Hdg/Dist  Freq  Var  ID
VINTON121/15.027708WVIT ...- .. -
TECH105/39.236806WTEC - . -.-.

Airport Services

Fuel available: 100LL
24-HR SELF-SERVE FUEL AVAILABLE WITH CREDIT CARD.
Parking: tiedowns
Airframe service: MAJOR
Powerplant service: MAJOR
Bottled oxygen: NONE
Bulk oxygen: NONE

Runway Information

Runway 5/23

Dimensions: 3058 x 50 ft. / 932 x 15 m
Surface: asphalt, in good condition
Runway edge lights: medium intensity
Runway edge markings: MARKINGS VARY BTN FAIR AND POOR.
NON-STD SML DSPLCEMNT ARROWS AND CNTRLN MARKING FIRST QTR OF RY ONLY.
RUNWAY 5  RUNWAY 23
Latitude: 37-06.285267N37-06.641983N
Longitude: 079-35.770783W079-35.326567W
Elevation: 854.7 ft.892.0 ft.
Gradient: 1.2% UP1.2% DOWN
Traffic pattern: leftleft
Runway heading: 054 magnetic, 045 true234 magnetic, 225 true
Displaced threshold: 250 ft.no
Markings: NSTD, in fair conditionNSTD, in fair condition
Runway end identifier lights: noyes
REIL OTS INDEFLY.
Touchdown point: yes, no lightsyes, no lights
Obstructions: 35 ft. trees, 290 ft. from runway, 127 ft. right of centerline, 2:1 slope to clear
RY 05 HAS +12 FT ROAD AT THLD 100 FT R. PWR POLE 128 FT RIGHT OF APCH 86 FT FM THLD.
62 ft. tree, 749 ft. from runway, 219 ft. right of centerline, 8:1 slope to clear
+15 FT ROAD AT THLD 125 FT L.

Airport Ownership and Management from official FAA records

Ownership: Privately-owned
Owner: SMITH MOUNTAIN LAKE AIRPORT, LLC.
1090 CUTLASS RD
MONETA, VA 24121
Phone 540-297-4859
Manager: MIKE MATTA
1090 CUTLASS RD
MONETA, VA 24121
Phone 540-297-4859

Airport Operational Statistics

Aircraft based on the field: 21
Single engine airplanes: 20
Multi engine airplanes: 1
    
Aircraft operations: avg 102/week *
51% local general aviation
44% transient general aviation
5% air taxi
<1% military
* for 12-month period ending 30 April 2017

Additional Remarks

DEER ON & INVOF ARPT.
ROA TWR SVCS AVBL AT 540-563-1307.

Instrument Procedures

NOTE: All procedures below are presented as PDF files. If you need a reader for these files, you should download the free Adobe Reader.

NOT FOR NAVIGATION. Please procure official charts for flight.
FAA instrument procedures published for use from 19 July 2018 at 0901Z to 16 August 2018 at 0900Z.

 
IAPs - Instrument Approach Procedures
RNAV (GPS) RWY 23   download (178KB)
NOTE: Special Take-Off Minimums/Departure Procedures apply   download

Other nearby airports with instrument procedures:

W90 - New London Airport (16 nm NE)
KROA - Roanoke-Blacksburg Regional Airport/Woodrum Field (22 nm NW)
KLYH - Lynchburg Regional Airport/Preston Glenn Field (23 nm NE)
0V4 - Brookneal/Campbell County Airport (28 nm E)
W24 - Falwell Airport (28 nm NE)
 
Loc | Ops | Rwys | IFR | FBO | Links
Com | Nav | Svcs | Stats | Notes


 
Area around W91 (Smith Mountain Lake Airport)
 
Road maps at: MapQuest Bing Google
 
Aerial photo
WARNING: Photo may not be current or correct
Aerial photo of W91 (Smith Mountain Lake Airport)
Photo by Moe
Photo taken 23-May-2015
looking west.

Do you have a better or more recent aerial photo of Smith Mountain Lake Airport that you would like to share? If so, please send us your photo.

 
Sectional chart

 
Airport distance calculator
Flying to Smith Mountain Lake Airport? Find the distance to fly.

From to W91

Sunrise and sunset
Times for 22-Jul-2018
 Local
(UTC-4)
 Zulu
(UTC)
Morning civil twilight05:4709:47
Sunrise06:1610:16
Sunset20:3300:33
Evening civil twilight21:0301:03

Current date and time
Zulu (UTC)  22-Jul-2018 20:57:22
Local (UTC-4)  22-Jul-2018 16:57:22
 
METAR
KROA 
22nm NW 
222054Z 10006KT 10SM SCT025 BKN033 BKN065 26/18 A2980 RMK AO2 SLP079 T02610183 55008
KLYH 
23nm NE 
222054Z 35005KT 10SM VCTS FEW008 BKN040 BKN049 24/22 A2979 RMK AO2 RAE32 TSB19E40 SLP081 P0000 60005 T02390217 55005
K0V4 
28nm E 
222035Z AUTO 14003KT 10SM SCT030 BKN039 OVC075 27/21 A2977 RMK AO1 T02700210
KDAN 
35nm S 
222053Z AUTO 00000KT 10SM SCT027 28/22 A2975 RMK AO2 SLP064 T02780217 55004
KMTV 
36nm SW 
222035Z AUTO 14003KT 10SM SCT032 SCT110 24/21 A2980 RMK AO2 T02350209
KBCB 
40nm W 
222035Z AUTO 02003KT 7SM +VCTSRA SCT016 SCT036 BKN065 22/20 A2985 RMK AO2 LTG DSNT NW P0001 T02230204
KSIF 
42nm S 
222040Z AUTO 00000KT 10SM SCT032 SCT048 SCT050 25/22 A2976 RMK AO2 T02540218
KW78 
43nm SE 
222030Z AUTO 00000KT 10SM SCT060 SCT110 27/23 A2975 RMK AO1 T02700229
TAF
KROA 
22nm NW 
221949Z 2220/2318 12006KT P6SM VCTS SCT025CB BKN050 TEMPO 2220/2224 -TSRA OVC008CB FM230000 12005KT 4SM -SHRA OVC008 TEMPO 2300/2304 2SM TSRA OVC008CB FM230400 VRB03KT P6SM VCSH BKN030 FM230600 VRB02KT P6SM BKN008 FM231500 12007KT P6SM BKN060
KLYH 
23nm NE 
221720Z 2218/2318 VRB04KT P6SM VCTS BKN015CB TEMPO 2218/2222 2SM TSRA OVC009CB FM230000 VRB04KT P6SM VCTS BKN035CB TEMPO 2300/2303 2SM -SHRA OVC007 FM230600 VRB03KT P6SM OVC030 FM231100 09005KT P6SM OVC020 FM231500 12007KT P6SM OVC060
NOTAMs
Click for the latest NOTAMs
NOTAMs are issued by the DoD/FAA and will open in a separate window not controlled by AirNav.

 

 
 

FBO, Fuel Providers, and Aircraft Ground Support

  
 Business Name 
 
 Contact 
 
 Services / Description 
 
Fuel Prices
 
Comments
  
Smith Mountain Lake Airport 540-297-4859
no information available

If you are affiliated with Smith Mountain Lake Airport and would like to show here your services, contact info, web link, logo, and more, click here
100LL
SS $4.69 
 Updated 18-Jul-2018
 
   5 read write
SS=Self service
Update Fuel Prices
 

Would you like to see your business listed on this page?

 If your business provides an interesting product or service to pilots, flight crews, aircraft, or users of the Smith Mountain Lake Airport, you should consider listing it here.  To start the listing process, click on the button below
 
Add a business
 

Other Pages about Smith Mountain Lake Airport

smlairport.com
 
Update a link
 
Copyright © AirNav, LLC. All rights reserved. Privacy Policy  Contact